sensor_id;sensor_type;location;lat;lon;timestamp;temperature;humidity
20438;DHT22;17436;50.338;8.810;2022-08-19T00:01:45;22.00;29.70
20438;DHT22;17436;50.338;8.810;2022-08-19T00:04:14;21.90;30.90
20438;DHT22;17436;50.338;8.810;2022-08-19T00:06:44;21.90;30.10
20438;DHT22;17436;50.338;8.810;2022-08-19T00:09:13;21.90;30.30
20438;DHT22;17436;50.338;8.810;2022-08-19T00:11:41;21.90;31.20
20438;DHT22;17436;50.338;8.810;2022-08-19T00:14:11;21.90;30.50
20438;DHT22;17436;50.338;8.810;2022-08-19T00:16:41;21.90;30.60
20438;DHT22;17436;50.338;8.810;2022-08-19T00:19:08;21.90;30.40
20438;DHT22;17436;50.338;8.810;2022-08-19T00:21:35;22.00;30.40
20438;DHT22;17436;50.338;8.810;2022-08-19T00:24:05;21.90;30.50
20438;DHT22;17436;50.338;8.810;2022-08-19T00:26:32;21.90;30.80
20438;DHT22;17436;50.338;8.810;2022-08-19T00:28:59;21.90;30.50
20438;DHT22;17436;50.338;8.810;2022-08-19T00:31:26;21.90;31.00
20438;DHT22;17436;50.338;8.810;2022-08-19T00:33:55;21.90;30.10
20438;DHT22;17436;50.338;8.810;2022-08-19T00:36:22;21.90;31.00
20438;DHT22;17436;50.338;8.810;2022-08-19T00:38:49;22.00;30.00
20438;DHT22;17436;50.338;8.810;2022-08-19T00:41:19;22.00;31.10
20438;DHT22;17436;50.338;8.810;2022-08-19T00:43:58;22.00;30.40
20438;DHT22;17436;50.338;8.810;2022-08-19T00:46:25;22.00;30.30
20438;DHT22;17436;50.338;8.810;2022-08-19T00:48:52;21.90;30.70
20438;DHT22;17436;50.338;8.810;2022-08-19T00:51:20;22.00;30.60
20438;DHT22;17436;50.338;8.810;2022-08-19T00:53:47;22.00;30.80
20438;DHT22;17436;50.338;8.810;2022-08-19T00:56:14;21.90;31.20
20438;DHT22;17436;50.338;8.810;2022-08-19T00:58:41;22.00;31.40
20438;DHT22;17436;50.338;8.810;2022-08-19T01:01:08;22.00;30.70
20438;DHT22;17436;50.338;8.810;2022-08-19T01:03:34;22.00;30.60
20438;DHT22;17436;50.338;8.810;2022-08-19T01:06:01;21.90;31.70
20438;DHT22;17436;50.338;8.810;2022-08-19T01:08:29;21.90;31.40
20438;DHT22;17436;50.338;8.810;2022-08-19T01:10:58;22.00;31.20
20438;DHT22;17436;50.338;8.810;2022-08-19T01:13:29;22.00;30.70
20438;DHT22;17436;50.338;8.810;2022-08-19T01:15:58;21.90;31.20
20438;DHT22;17436;50.338;8.810;2022-08-19T01:18:27;22.00;30.90
20438;DHT22;17436;50.338;8.810;2022-08-19T01:20:55;21.80;31.60
20438;DHT22;17436;50.338;8.810;2022-08-19T01:23:24;21.90;31.20
20438;DHT22;17436;50.338;8.810;2022-08-19T01:26:09;22.00;31.60
20438;DHT22;17436;50.338;8.810;2022-08-19T01:28:36;21.90;31.70
20438;DHT22;17436;50.338;8.810;2022-08-19T01:31:04;21.90;31.90
20438;DHT22;17436;50.338;8.810;2022-08-19T01:33:31;21.90;32.10
20438;DHT22;17436;50.338;8.810;2022-08-19T01:36:04;21.90;32.60
20438;DHT22;17436;50.338;8.810;2022-08-19T01:38:36;21.90;32.00
20438;DHT22;17436;50.338;8.810;2022-08-19T01:41:04;22.00;31.40
20438;DHT22;17436;50.338;8.810;2022-08-19T01:43:31;21.90;32.40
20438;DHT22;17436;50.338;8.810;2022-08-19T01:45:58;21.90;32.40
20438;DHT22;17436;50.338;8.810;2022-08-19T01:48:24;22.00;32.10
20438;DHT22;17436;50.338;8.810;2022-08-19T01:50:52;21.90;33.60
20438;DHT22;17436;50.338;8.810;2022-08-19T01:53:18;21.90;31.80
20438;DHT22;17436;50.338;8.810;2022-08-19T01:55:46;22.00;31.80
20438;DHT22;17436;50.338;8.810;2022-08-19T01:58:21;22.00;31.20
20438;DHT22;17436;50.338;8.810;2022-08-19T02:00:49;22.00;32.10
20438;DHT22;17436;50.338;8.810;2022-08-19T02:03:16;21.90;32.90
20438;DHT22;17436;50.338;8.810;2022-08-19T02:05:43;22.00;32.50
20438;DHT22;17436;50.338;8.810;2022-08-19T02:08:11;22.00;32.20
20438;DHT22;17436;50.338;8.810;2022-08-19T02:10:39;22.00;32.40
20438;DHT22;17436;50.338;8.810;2022-08-19T02:13:08;22.00;32.50
20438;DHT22;17436;50.338;8.810;2022-08-19T02:15:35;22.00;33.60
20438;DHT22;17436;50.338;8.810;2022-08-19T02:18:01;22.00;33.70
20438;DHT22;17436;50.338;8.810;2022-08-19T02:20:28;22.00;33.70
20438;DHT22;17436;50.338;8.810;2022-08-19T02:22:55;21.90;33.60
20438;DHT22;17436;50.338;8.810;2022-08-19T02:25:21;21.90;33.60
20438;DHT22;17436;50.338;8.810;2022-08-19T02:27:48;21.90;33.60
20438;DHT22;17436;50.338;8.810;2022-08-19T02:30:16;21.80;34.70
20438;DHT22;17436;50.338;8.810;2022-08-19T02:32:44;21.80;34.70
20438;DHT22;17436;50.338;8.810;2022-08-19T02:35:11;21.80;34.80
20438;DHT22;17436;50.338;8.810;2022-08-19T02:37:38;21.70;35.20
20438;DHT22;17436;50.338;8.810;2022-08-19T02:40:22;21.80;35.90
20438;DHT22;17436;50.338;8.810;2022-08-19T02:42:49;21.80;36.50
20438;DHT22;17436;50.338;8.810;2022-08-19T02:45:17;21.70;36.20
20438;DHT22;17436;50.338;8.810;2022-08-19T02:47:44;21.70;38.10
20438;DHT22;17436;50.338;8.810;2022-08-19T02:50:11;21.70;38.00
20438;DHT22;17436;50.338;8.810;2022-08-19T02:52:38;21.70;37.60
20438;DHT22;17436;50.338;8.810;2022-08-19T02:55:06;21.70;38.20
20438;DHT22;17436;50.338;8.810;2022-08-19T02:57:32;21.70;38.30
20438;DHT22;17436;50.338;8.810;2022-08-19T03:00:00;21.70;38.00
20438;DHT22;17436;50.338;8.810;2022-08-19T03:02:28;21.70;38.40
20438;DHT22;17436;50.338;8.810;2022-08-19T03:04:56;21.70;38.60
20438;DHT22;17436;50.338;8.810;2022-08-19T03:07:22;21.70;38.00
20438;DHT22;17436;50.338;8.810;2022-08-19T03:09:49;21.70;38.30
20438;DHT22;17436;50.338;8.810;2022-08-19T03:12:16;21.60;38.90
20438;DHT22;17436;50.338;8.810;2022-08-19T03:14:42;21.60;39.00
20438;DHT22;17436;50.338;8.810;2022-08-19T03:17:10;21.60;38.90
20438;DHT22;17436;50.338;8.810;2022-08-19T03:19:39;21.60;39.70
20438;DHT22;17436;50.338;8.810;2022-08-19T03:22:06;21.50;41.10
20438;DHT22;17436;50.338;8.810;2022-08-19T03:24:33;21.50;41.30
20438;DHT22;17436;50.338;8.810;2022-08-19T03:27:00;21.50;41.40
20438;DHT22;17436;50.338;8.810;2022-08-19T03:29:29;21.50;41.80
20438;DHT22;17436;50.338;8.810;2022-08-19T03:31:58;21.50;41.30
20438;DHT22;17436;50.338;8.810;2022-08-19T03:34:27;21.30;43.50
20438;DHT22;17436;50.338;8.810;2022-08-19T03:36:59;21.40;42.50
20438;DHT22;17436;50.338;8.810;2022-08-19T03:39:26;21.40;42.20
20438;DHT22;17436;50.338;8.810;2022-08-19T03:41:54;21.40;43.30
20438;DHT22;17436;50.338;8.810;2022-08-19T03:44:23;21.40;44.00
20438;DHT22;17436;50.338;8.810;2022-08-19T03:46:54;21.40;43.30
20438;DHT22;17436;50.338;8.810;2022-08-19T03:49:22;21.40;42.50
20438;DHT22;17436;50.338;8.810;2022-08-19T03:51:49;21.20;45.10
20438;DHT22;17436;50.338;8.810;2022-08-19T03:54:20;21.40;44.90
20438;DHT22;17436;50.338;8.810;2022-08-19T03:56:49;21.40;44.10
20438;DHT22;17436;50.338;8.810;2022-08-19T03:59:18;21.40;45.10
20438;DHT22;17436;50.338;8.810;2022-08-19T04:01:46;21.30;45.30
20438;DHT22;17436;50.338;8.810;2022-08-19T04:04:13;21.40;44.90
20438;DHT22;17436;50.338;8.810;2022-08-19T04:06:40;21.40;44.40
20438;DHT22;17436;50.338;8.810;2022-08-19T04:09:09;21.40;44.20
20438;DHT22;17436;50.338;8.810;2022-08-19T04:11:39;21.40;43.70
20438;DHT22;17436;50.338;8.810;2022-08-19T04:14:07;21.40;45.00
20438;DHT22;17436;50.338;8.810;2022-08-19T04:16:34;21.40;44.90
20438;DHT22;17436;50.338;8.810;2022-08-19T04:19:03;21.40;44.70
20438;DHT22;17436;50.338;8.810;2022-08-19T04:21:29;21.30;45.50
20438;DHT22;17436;50.338;8.810;2022-08-19T04:23:57;21.30;46.80
20438;DHT22;17436;50.338;8.810;2022-08-19T04:26:26;21.40;45.90
20438;DHT22;17436;50.338;8.810;2022-08-19T04:28:55;21.40;45.00
20438;DHT22;17436;50.338;8.810;2022-08-19T04:31:24;21.40;45.90
20438;DHT22;17436;50.338;8.810;2022-08-19T04:33:52;21.40;45.90
20438;DHT22;17436;50.338;8.810;2022-08-19T04:36:21;21.40;45.90
20438;DHT22;17436;50.338;8.810;2022-08-19T04:38:49;21.40;45.70
20438;DHT22;17436;50.338;8.810;2022-08-19T04:41:16;21.40;45.90
20438;DHT22;17436;50.338;8.810;2022-08-19T04:44:02;21.40;45.90
20438;DHT22;17436;50.338;8.810;2022-08-19T04:46:29;21.30;46.60
20438;DHT22;17436;50.338;8.810;2022-08-19T04:48:57;21.40;47.50
20438;DHT22;17436;50.338;8.810;2022-08-19T04:51:24;21.40;46.80
20438;DHT22;17436;50.338;8.810;2022-08-19T04:53:51;21.40;46.80
20438;DHT22;17436;50.338;8.810;2022-08-19T04:56:20;21.50;46.00
20438;DHT22;17436;50.338;8.810;2022-08-19T04:58:48;21.50;46.00
20438;DHT22;17436;50.338;8.810;2022-08-19T05:01:21;21.50;45.40
20438;DHT22;17436;50.338;8.810;2022-08-19T05:03:48;21.50;47.00
20438;DHT22;17436;50.338;8.810;2022-08-19T05:06:16;21.40;45.90
20438;DHT22;17436;50.338;8.810;2022-08-19T05:08:47;21.40;46.70
20438;DHT22;17436;50.338;8.810;2022-08-19T05:11:17;21.40;47.00
20438;DHT22;17436;50.338;8.810;2022-08-19T05:13:46;21.40;47.50
20438;DHT22;17436;50.338;8.810;2022-08-19T05:16:14;21.40;47.50
20438;DHT22;17436;50.338;8.810;2022-08-19T05:18:44;21.50;46.70
20438;DHT22;17436;50.338;8.810;2022-08-19T05:21:28;21.40;47.50
20438;DHT22;17436;50.338;8.810;2022-08-19T05:24:13;21.50;47.90
20438;DHT22;17436;50.338;8.810;2022-08-19T05:26:43;21.60;48.20
20438;DHT22;17436;50.338;8.810;2022-08-19T05:29:12;21.70;47.90
20438;DHT22;17436;50.338;8.810;2022-08-19T05:31:39;21.70;47.60
20438;DHT22;17436;50.338;8.810;2022-08-19T05:34:08;21.70;46.50
20438;DHT22;17436;50.338;8.810;2022-08-19T05:36:36;21.80;46.50
20438;DHT22;17436;50.338;8.810;2022-08-19T05:39:05;21.70;47.20
20438;DHT22;17436;50.338;8.810;2022-08-19T05:41:32;21.80;47.00
20438;DHT22;17436;50.338;8.810;2022-08-19T05:44:03;22.00;46.00
20438;DHT22;17436;50.338;8.810;2022-08-19T05:46:32;22.20;44.00
20438;DHT22;17436;50.338;8.810;2022-08-19T05:48:58;22.20;41.90
20438;DHT22;17436;50.338;8.810;2022-08-19T05:51:26;22.20;42.30
20438;DHT22;17436;50.338;8.810;2022-08-19T05:53:53;22.20;43.20
20438;DHT22;17436;50.338;8.810;2022-08-19T05:56:20;22.30;42.80
20438;DHT22;17436;50.338;8.810;2022-08-19T06:01:23;22.20;41.50
20438;DHT22;17436;50.338;8.810;2022-08-19T06:03:50;22.30;41.20
20438;DHT22;17436;50.338;8.810;2022-08-19T06:06:18;22.20;41.20
20438;DHT22;17436;50.338;8.810;2022-08-19T06:08:46;22.30;41.00
20438;DHT22;17436;50.338;8.810;2022-08-19T06:11:18;22.40;40.40
20438;DHT22;17436;50.338;8.810;2022-08-19T06:13:46;22.50;40.10
20438;DHT22;17436;50.338;8.810;2022-08-19T06:16:16;22.50;39.00
20438;DHT22;17436;50.338;8.810;2022-08-19T06:18:49;22.60;37.50
20438;DHT22;17436;50.338;8.810;2022-08-19T06:21:19;22.70;36.80
20438;DHT22;17436;50.338;8.810;2022-08-19T06:23:48;22.80;34.40
20438;DHT22;17436;50.338;8.810;2022-08-19T06:26:16;22.90;34.50
20438;DHT22;17436;50.338;8.810;2022-08-19T06:28:44;23.00;34.70
20438;DHT22;17436;50.338;8.810;2022-08-19T06:31:13;23.10;33.30
20438;DHT22;17436;50.338;8.810;2022-08-19T06:33:41;23.20;32.70
20438;DHT22;17436;50.338;8.810;2022-08-19T06:36:16;23.20;31.80
20438;DHT22;17436;50.338;8.810;2022-08-19T06:38:43;23.30;31.00
20438;DHT22;17436;50.338;8.810;2022-08-19T06:41:11;23.50;28.80
20438;DHT22;17436;50.338;8.810;2022-08-19T06:43:38;23.50;28.10
20438;DHT22;17436;50.338;8.810;2022-08-19T06:46:11;23.50;28.80
20438;DHT22;17436;50.338;8.810;2022-08-19T06:48:38;23.50;28.40
20438;DHT22;17436;50.338;8.810;2022-08-19T06:51:05;23.50;28.10
20438;DHT22;17436;50.338;8.810;2022-08-19T06:53:32;23.70;27.30
20438;DHT22;17436;50.338;8.810;2022-08-19T06:55:59;23.80;26.90
20438;DHT22;17436;50.338;8.810;2022-08-19T06:58:29;23.90;25.70
20438;DHT22;17436;50.338;8.810;2022-08-19T07:00:59;24.10;24.60
20438;DHT22;17436;50.338;8.810;2022-08-19T07:03:29;24.20;23.40
20438;DHT22;17436;50.338;8.810;2022-08-19T07:05:58;24.10;23.20
20438;DHT22;17436;50.338;8.810;2022-08-19T07:08:28;24.30;22.50
20438;DHT22;17436;50.338;8.810;2022-08-19T07:10:55;24.30;22.00
20438;DHT22;17436;50.338;8.810;2022-08-19T07:13:22;24.50;20.60
20438;DHT22;17436;50.338;8.810;2022-08-19T07:15:50;24.60;20.20
20438;DHT22;17436;50.338;8.810;2022-08-19T07:18:18;24.60;19.50
20438;DHT22;17436;50.338;8.810;2022-08-19T07:20:45;24.60;18.10
20438;DHT22;17436;50.338;8.810;2022-08-19T07:23:12;24.60;19.00
20438;DHT22;17436;50.338;8.810;2022-08-19T07:25:39;24.70;18.60
20438;DHT22;17436;50.338;8.810;2022-08-19T07:28:06;24.80;17.60
20438;DHT22;17436;50.338;8.810;2022-08-19T07:30:36;25.00;16.40
20438;DHT22;17436;50.338;8.810;2022-08-19T07:33:05;25.00;14.50
20438;DHT22;17436;50.338;8.810;2022-08-19T07:35:31;25.10;15.90
20438;DHT22;17436;50.338;8.810;2022-08-19T07:40:30;25.30;14.60
20438;DHT22;17436;50.338;8.810;2022-08-19T07:43:00;25.50;13.00
20438;DHT22;17436;50.338;8.810;2022-08-19T07:45:28;25.50;12.50
20438;DHT22;17436;50.338;8.810;2022-08-19T07:47:56;25.50;11.60
20438;DHT22;17436;50.338;8.810;2022-08-19T07:50:24;25.60;12.00
20438;DHT22;17436;50.338;8.810;2022-08-19T07:52:50;25.70;11.60
20438;DHT22;17436;50.338;8.810;2022-08-19T07:55:21;25.80;9.70
20438;DHT22;17436;50.338;8.810;2022-08-19T07:57:48;25.90;8.90
20438;DHT22;17436;50.338;8.810;2022-08-19T08:00:15;26.00;8.60
20438;DHT22;17436;50.338;8.810;2022-08-19T08:02:42;25.90;7.60
20438;DHT22;17436;50.338;8.810;2022-08-19T08:05:09;26.00;6.40
20438;DHT22;17436;50.338;8.810;2022-08-19T08:07:54;25.90;6.40
20438;DHT22;17436;50.338;8.810;2022-08-19T08:10:39;26.00;5.90
20438;DHT22;17436;50.338;8.810;2022-08-19T08:13:06;26.00;4.20
20438;DHT22;17436;50.338;8.810;2022-08-19T08:15:32;26.10;4.90
20438;DHT22;17436;50.338;8.810;2022-08-19T08:17:59;26.40;2.80
20438;DHT22;17436;50.338;8.810;2022-08-19T08:20:26;26.80;2.20
20438;DHT22;17436;50.338;8.810;2022-08-19T08:22:54;26.90;1.20
20438;DHT22;17436;50.338;8.810;2022-08-19T08:25:39;27.10;1.00
20438;DHT22;17436;50.338;8.810;2022-08-19T08:28:05;27.40;1.00
20438;DHT22;17436;50.338;8.810;2022-08-19T08:30:34;27.60;1.00
20438;DHT22;17436;50.338;8.810;2022-08-19T08:33:02;27.80;1.00
20438;DHT22;17436;50.338;8.810;2022-08-19T08:35:29;28.00;1.00
20438;DHT22;17436;50.338;8.810;2022-08-19T08:37:58;27.90;1.00
20438;DHT22;17436;50.338;8.810;2022-08-19T08:40:28;27.80;1.00
20438;DHT22;17436;50.338;8.810;2022-08-19T08:42:58;27.70;1.00
20438;DHT22;17436;50.338;8.810;2022-08-19T08:45:30;27.40;1.00
20438;DHT22;17436;50.338;8.810;2022-08-19T08:48:02;27.50;1.00
20438;DHT22;17436;50.338;8.810;2022-08-19T08:50:33;27.40;1.00
20438;DHT22;17436;50.338;8.810;2022-08-19T08:53:05;27.30;1.00
20438;DHT22;17436;50.338;8.810;2022-08-19T08:55:33;27.10;1.00
20438;DHT22;17436;50.338;8.810;2022-08-19T08:58:03;26.70;1.00
20438;DHT22;17436;50.338;8.810;2022-08-19T09:00:33;26.60;1.00
20438;DHT22;17436;50.338;8.810;2022-08-19T09:03:01;26.30;1.00
20438;DHT22;17436;50.338;8.810;2022-08-19T09:05:38;26.20;1.00
20438;DHT22;17436;50.338;8.810;2022-08-19T09:08:15;26.20;1.00
20438;DHT22;17436;50.338;8.810;2022-08-19T09:10:49;26.20;1.00
20438;DHT22;17436;50.338;8.810;2022-08-19T09:13:30;26.10;1.00
20438;DHT22;17436;50.338;8.810;2022-08-19T09:16:04;26.00;1.00
20438;DHT22;17436;50.338;8.810;2022-08-19T09:18:39;25.90;1.20
20438;DHT22;17436;50.338;8.810;2022-08-19T09:21:07;26.00;1.20
20438;DHT22;17436;50.338;8.810;2022-08-19T09:23:36;26.30;1.00
20438;DHT22;17436;50.338;8.810;2022-08-19T09:26:07;26.40;1.00
20438;DHT22;17436;50.338;8.810;2022-08-19T09:28:35;26.50;1.00
20438;DHT22;17436;50.338;8.810;2022-08-19T09:31:02;26.70;1.00
20438;DHT22;17436;50.338;8.810;2022-08-19T09:33:29;26.40;1.00
20438;DHT22;17436;50.338;8.810;2022-08-19T09:36:03;26.30;1.00
20438;DHT22;17436;50.338;8.810;2022-08-19T09:38:30;26.80;1.00
20438;DHT22;17436;50.338;8.810;2022-08-19T09:41:03;27.00;1.00
20438;DHT22;17436;50.338;8.810;2022-08-19T09:43:34;27.20;1.00
20438;DHT22;17436;50.338;8.810;2022-08-19T09:46:02;27.00;1.00
20438;DHT22;17436;50.338;8.810;2022-08-19T09:48:31;26.80;1.00
20438;DHT22;17436;50.338;8.810;2022-08-19T09:51:03;26.90;1.00
20438;DHT22;17436;50.338;8.810;2022-08-19T09:53:29;27.10;1.00
20438;DHT22;17436;50.338;8.810;2022-08-19T09:55:56;27.40;1.00
20438;DHT22;17436;50.338;8.810;2022-08-19T09:58:24;27.60;1.00
20438;DHT22;17436;50.338;8.810;2022-08-19T10:00:53;27.60;1.00
20438;DHT22;17436;50.338;8.810;2022-08-19T10:03:20;27.50;1.00
20438;DHT22;17436;50.338;8.810;2022-08-19T10:05:47;27.40;1.00
20438;DHT22;17436;50.338;8.810;2022-08-19T10:08:19;27.30;1.00
20438;DHT22;17436;50.338;8.810;2022-08-19T10:10:46;27.20;1.00
20438;DHT22;17436;50.338;8.810;2022-08-19T10:13:15;26.90;1.00
20438;DHT22;17436;50.338;8.810;2022-08-19T10:15:44;26.70;1.00
20438;DHT22;17436;50.338;8.810;2022-08-19T10:18:11;26.60;1.00
20438;DHT22;17436;50.338;8.810;2022-08-19T10:20:37;26.80;1.00
20438;DHT22;17436;50.338;8.810;2022-08-19T10:23:04;27.00;1.00
20438;DHT22;17436;50.338;8.810;2022-08-19T10:25:32;26.90;1.00
20438;DHT22;17436;50.338;8.810;2022-08-19T10:28:00;26.80;1.00
20438;DHT22;17436;50.338;8.810;2022-08-19T10:30:27;26.90;1.00
20438;DHT22;17436;50.338;8.810;2022-08-19T10:32:55;27.10;1.00
20438;DHT22;17436;50.338;8.810;2022-08-19T10:35:28;27.00;1.00
20438;DHT22;17436;50.338;8.810;2022-08-19T10:37:55;26.80;1.00
20438;DHT22;17436;50.338;8.810;2022-08-19T10:40:25;26.90;1.00
20438;DHT22;17436;50.338;8.810;2022-08-19T10:42:55;27.00;1.00
20438;DHT22;17436;50.338;8.810;2022-08-19T10:45:23;26.90;1.00
20438;DHT22;17436;50.338;8.810;2022-08-19T10:47:51;26.80;1.00
20438;DHT22;17436;50.338;8.810;2022-08-19T10:50:20;26.70;1.00
20438;DHT22;17436;50.338;8.810;2022-08-19T10:53:06;26.80;1.00
20438;DHT22;17436;50.338;8.810;2022-08-19T10:55:34;26.70;1.00
20438;DHT22;17436;50.338;8.810;2022-08-19T10:58:20;26.70;1.00
20438;DHT22;17436;50.338;8.810;2022-08-19T11:00:52;26.90;1.00
20438;DHT22;17436;50.338;8.810;2022-08-19T11:03:20;27.20;1.00
20438;DHT22;17436;50.338;8.810;2022-08-19T11:05:57;27.30;1.00
20438;DHT22;17436;50.338;8.810;2022-08-19T11:08:24;27.30;1.00
20438;DHT22;17436;50.338;8.810;2022-08-19T11:10:52;27.50;1.00
20438;DHT22;17436;50.338;8.810;2022-08-19T11:13:21;27.40;1.00
20438;DHT22;17436;50.338;8.810;2022-08-19T11:15:56;27.10;1.00
20438;DHT22;17436;50.338;8.810;2022-08-19T11:18:23;27.20;1.00
20438;DHT22;17436;50.338;8.810;2022-08-19T11:20:51;27.30;1.00
20438;DHT22;17436;50.338;8.810;2022-08-19T11:23:18;27.70;1.00
20438;DHT22;17436;50.338;8.810;2022-08-19T11:25:44;27.80;1.00
20438;DHT22;17436;50.338;8.810;2022-08-19T11:28:11;27.90;1.00
20438;DHT22;17436;50.338;8.810;2022-08-19T11:30:38;28.00;1.00
20438;DHT22;17436;50.338;8.810;2022-08-19T11:33:05;28.10;1.00
20438;DHT22;17436;50.338;8.810;2022-08-19T11:35:32;28.20;1.00
20438;DHT22;17436;50.338;8.810;2022-08-19T11:38:00;28.20;1.00
20438;DHT22;17436;50.338;8.810;2022-08-19T11:40:28;28.10;1.00
20438;DHT22;17436;50.338;8.810;2022-08-19T11:42:55;28.00;1.00
20438;DHT22;17436;50.338;8.810;2022-08-19T11:45:23;28.20;1.00
20438;DHT22;17436;50.338;8.810;2022-08-19T11:47:50;28.30;1.00
20438;DHT22;17436;50.338;8.810;2022-08-19T11:50:17;28.40;1.00
20438;DHT22;17436;50.338;8.810;2022-08-19T11:52:45;28.40;1.00
20438;DHT22;17436;50.338;8.810;2022-08-19T11:55:13;28.50;1.00
20438;DHT22;17436;50.338;8.810;2022-08-19T11:57:40;28.20;1.00
20438;DHT22;17436;50.338;8.810;2022-08-19T12:00:09;28.10;1.00
20438;DHT22;17436;50.338;8.810;2022-08-19T12:02:37;28.30;1.00
20438;DHT22;17436;50.338;8.810;2022-08-19T12:05:05;28.50;1.00
20438;DHT22;17436;50.338;8.810;2022-08-19T12:07:32;28.60;1.00
20438;DHT22;17436;50.338;8.810;2022-08-19T12:10:00;28.70;1.00
20438;DHT22;17436;50.338;8.810;2022-08-19T12:12:28;28.70;1.00
20438;DHT22;17436;50.338;8.810;2022-08-19T12:14:54;28.80;1.00
20438;DHT22;17436;50.338;8.810;2022-08-19T12:17:24;28.80;1.00
20438;DHT22;17436;50.338;8.810;2022-08-19T12:19:51;28.80;1.00
20438;DHT22;17436;50.338;8.810;2022-08-19T12:22:17;28.40;1.00
20438;DHT22;17436;50.338;8.810;2022-08-19T12:24:45;28.20;1.00
20438;DHT22;17436;50.338;8.810;2022-08-19T12:27:11;28.50;1.00
20438;DHT22;17436;50.338;8.810;2022-08-19T12:29:39;28.50;1.00
20438;DHT22;17436;50.338;8.810;2022-08-19T12:32:06;28.60;1.00
20438;DHT22;17436;50.338;8.810;2022-08-19T12:34:34;28.60;1.00
20438;DHT22;17436;50.338;8.810;2022-08-19T12:37:04;28.60;1.00
20438;DHT22;17436;50.338;8.810;2022-08-19T12:39:34;28.60;1.00
20438;DHT22;17436;50.338;8.810;2022-08-19T12:42:01;28.60;1.00
20438;DHT22;17436;50.338;8.810;2022-08-19T12:44:28;28.60;1.00
20438;DHT22;17436;50.338;8.810;2022-08-19T12:46:57;28.50;1.00
20438;DHT22;17436;50.338;8.810;2022-08-19T12:49:24;28.50;1.00
20438;DHT22;17436;50.338;8.810;2022-08-19T12:51:51;28.60;1.00
20438;DHT22;17436;50.338;8.810;2022-08-19T12:54:18;28.60;1.00
20438;DHT22;17436;50.338;8.810;2022-08-19T12:56:45;28.80;1.00
20438;DHT22;17436;50.338;8.810;2022-08-19T12:59:12;28.70;1.00
20438;DHT22;17436;50.338;8.810;2022-08-19T13:01:43;28.60;1.00
20438;DHT22;17436;50.338;8.810;2022-08-19T13:04:11;28.50;1.00
20438;DHT22;17436;50.338;8.810;2022-08-19T13:06:37;28.40;1.00
20438;DHT22;17436;50.338;8.810;2022-08-19T13:09:05;28.40;1.00
20438;DHT22;17436;50.338;8.810;2022-08-19T13:11:32;28.50;1.00
20438;DHT22;17436;50.338;8.810;2022-08-19T13:13:59;28.30;1.00
20438;DHT22;17436;50.338;8.810;2022-08-19T13:16:27;28.20;1.00
20438;DHT22;17436;50.338;8.810;2022-08-19T13:18:56;28.10;1.00
20438;DHT22;17436;50.338;8.810;2022-08-19T13:21:26;28.00;1.00
20438;DHT22;17436;50.338;8.810;2022-08-19T13:23:55;28.00;1.00
20438;DHT22;17436;50.338;8.810;2022-08-19T13:26:22;28.10;1.00
20438;DHT22;17436;50.338;8.810;2022-08-19T13:28:48;28.00;1.00
20438;DHT22;17436;50.338;8.810;2022-08-19T13:31:35;28.00;1.00
20438;DHT22;17436;50.338;8.810;2022-08-19T13:34:28;27.90;1.00
20438;DHT22;17436;50.338;8.810;2022-08-19T13:36:59;27.80;1.00
20438;DHT22;17436;50.338;8.810;2022-08-19T13:39:28;27.80;1.00
20438;DHT22;17436;50.338;8.810;2022-08-19T13:41:55;27.70;1.00
20438;DHT22;17436;50.338;8.810;2022-08-19T13:44:22;27.70;1.00
20438;DHT22;17436;50.338;8.810;2022-08-19T13:46:49;27.70;1.00
20438;DHT22;17436;50.338;8.810;2022-08-19T13:49:18;27.70;1.00
20438;DHT22;17436;50.338;8.810;2022-08-19T13:51:46;27.70;1.00
20438;DHT22;17436;50.338;8.810;2022-08-19T13:54:14;27.70;1.00
20438;DHT22;17436;50.338;8.810;2022-08-19T13:56:41;27.60;1.00
20438;DHT22;17436;50.338;8.810;2022-08-19T13:59:08;27.60;1.00
20438;DHT22;17436;50.338;8.810;2022-08-19T14:01:35;27.60;1.00
20438;DHT22;17436;50.338;8.810;2022-08-19T14:04:02;27.50;1.00
20438;DHT22;17436;50.338;8.810;2022-08-19T14:06:29;27.40;1.00
20438;DHT22;17436;50.338;8.810;2022-08-19T14:08:56;27.40;1.00
20438;DHT22;17436;50.338;8.810;2022-08-19T14:11:24;27.30;1.00
20438;DHT22;17436;50.338;8.810;2022-08-19T14:13:50;27.30;1.00
20438;DHT22;17436;50.338;8.810;2022-08-19T14:16:17;27.20;1.00
20438;DHT22;17436;50.338;8.810;2022-08-19T14:18:44;27.10;1.00
20438;DHT22;17436;50.338;8.810;2022-08-19T14:21:15;27.10;1.00
20438;DHT22;17436;50.338;8.810;2022-08-19T14:23:43;27.10;1.00
20438;DHT22;17436;50.338;8.810;2022-08-19T14:26:12;27.00;1.00
20438;DHT22;17436;50.338;8.810;2022-08-19T14:28:41;27.00;1.00
20438;DHT22;17436;50.338;8.810;2022-08-19T14:31:09;26.90;1.00
20438;DHT22;17436;50.338;8.810;2022-08-19T14:33:35;26.90;1.00
20438;DHT22;17436;50.338;8.810;2022-08-19T14:36:03;26.90;1.00
20438;DHT22;17436;50.338;8.810;2022-08-19T14:38:30;26.90;1.00
20438;DHT22;17436;50.338;8.810;2022-08-19T14:41:06;26.80;1.00
20438;DHT22;17436;50.338;8.810;2022-08-19T14:43:33;26.80;1.00
20438;DHT22;17436;50.338;8.810;2022-08-19T14:46:01;26.80;1.00
20438;DHT22;17436;50.338;8.810;2022-08-19T14:48:28;26.90;1.00
20438;DHT22;17436;50.338;8.810;2022-08-19T14:50:54;26.80;1.00
20438;DHT22;17436;50.338;8.810;2022-08-19T14:53:21;26.80;1.00
20438;DHT22;17436;50.338;8.810;2022-08-19T14:55:48;26.80;1.00
20438;DHT22;17436;50.338;8.810;2022-08-19T14:58:15;26.80;1.00
20438;DHT22;17436;50.338;8.810;2022-08-19T15:00:41;26.80;1.00
20438;DHT22;17436;50.338;8.810;2022-08-19T15:03:09;26.80;1.00
20438;DHT22;17436;50.338;8.810;2022-08-19T15:05:38;26.80;1.00
20438;DHT22;17436;50.338;8.810;2022-08-19T15:08:05;26.80;1.00
20438;DHT22;17436;50.338;8.810;2022-08-19T15:10:32;26.90;1.00
20438;DHT22;17436;50.338;8.810;2022-08-19T15:13:00;26.80;1.00
20438;DHT22;17436;50.338;8.810;2022-08-19T15:15:28;26.90;1.00
20438;DHT22;17436;50.338;8.810;2022-08-19T15:17:54;26.90;1.00
20438;DHT22;17436;50.338;8.810;2022-08-19T15:20:29;27.00;1.00
20438;DHT22;17436;50.338;8.810;2022-08-19T15:22:56;27.00;1.00
20438;DHT22;17436;50.338;8.810;2022-08-19T15:25:24;27.20;1.00
20438;DHT22;17436;50.338;8.810;2022-08-19T15:27:51;27.20;1.00
20438;DHT22;17436;50.338;8.810;2022-08-19T15:30:21;27.30;1.00
20438;DHT22;17436;50.338;8.810;2022-08-19T15:32:49;27.30;1.00
20438;DHT22;17436;50.338;8.810;2022-08-19T15:35:18;27.30;1.00
20438;DHT22;17436;50.338;8.810;2022-08-19T15:37:48;27.30;1.00
20438;DHT22;17436;50.338;8.810;2022-08-19T15:40:15;27.40;1.00
20438;DHT22;17436;50.338;8.810;2022-08-19T15:42:42;27.40;1.00
20438;DHT22;17436;50.338;8.810;2022-08-19T15:45:09;27.40;1.00
20438;DHT22;17436;50.338;8.810;2022-08-19T15:47:37;27.40;1.00
20438;DHT22;17436;50.338;8.810;2022-08-19T15:50:06;27.30;1.00
20438;DHT22;17436;50.338;8.810;2022-08-19T15:52:33;27.30;1.00